Time;durP1;ratioP1;P1;durP2;ratioP2;P2;SDS_P1;SDS_P2;PMS_P1;PMS_P2;Temp;Humidity;BMP_temperature;BMP_pressure;BME280_temperature;BME280_humidity;BME280_pressure;Samples;Min_cycle;Max_cycle;Signal;HPM_P1;HPM_P2
2023/12/17 00:01:06;;;;;;;15.60;6.20;;;3.40;99.90;;;;;;4415909;28;657971;-73
2023/12/17 00:03:53;;;;;;;11.10;5.73;;;3.30;99.90;;;;;;4409991;28;656727;-73
2023/12/17 00:06:42;;;;;;;22.73;9.63;;;3.40;99.90;;;;;;4422454;28;656980;-73
2023/12/17 00:09:29;;;;;;;11.57;5.17;;;3.30;99.90;;;;;;4398837;28;656509;-73
2023/12/17 00:12:16;;;;;;;25.60;10.23;;;3.40;99.90;;;;;;4425279;28;657019;-73
2023/12/17 00:15:05;;;;;;;24.33;10.83;;;3.30;99.90;;;;;;4396939;28;657568;-73
2023/12/17 00:17:52;;;;;;;22.33;9.50;;;3.30;99.90;;;;;;4401725;28;657701;-73
2023/12/17 00:20:40;;;;;;;23.83;10.13;;;3.40;99.90;;;;;;4426078;28;656752;-73
2023/12/17 00:23:27;;;;;;;27.10;10.10;;;3.40;99.90;;;;;;4398287;28;657725;-74
2023/12/17 00:26:15;;;;;;;31.27;10.87;;;3.40;99.90;;;;;;4421568;28;658025;-74
2023/12/17 00:29:02;;;;;;;14.13;6.63;;;3.40;99.90;;;;;;4402191;28;657855;-74
2023/12/17 00:31:51;;;;;;;21.97;10.43;;;3.40;99.90;;;;;;4418372;28;656698;-74
2023/12/17 00:34:38;;;;;;;22.10;9.63;;;3.50;99.90;;;;;;4406198;28;658211;-73
2023/12/17 00:37:25;;;;;;;6.30;3.30;;;3.40;99.90;;;;;;4405657;28;657748;-74
2023/12/17 00:40:13;;;;;;;22.00;9.70;;;3.50;99.90;;;;;;4404032;28;655495;-73
2023/12/17 00:43:00;;;;;;;17.73;7.33;;;3.50;99.90;;;;;;4420202;28;657634;-73
2023/12/17 00:45:47;;;;;;;20.30;7.33;;;3.50;99.90;;;;;;4371168;28;657031;-73
2023/12/17 00:48:36;;;;;;;14.47;7.03;;;3.60;99.90;;;;;;4256506;28;656468;-72
2023/12/17 00:51:23;;;;;;;22.53;9.03;;;3.60;99.90;;;;;;4234408;28;656746;-73
2023/12/17 00:54:10;;;;;;;24.10;8.10;;;3.60;99.90;;;;;;4426264;28;657072;-73
2023/12/17 00:56:58;;;;;;;19.03;7.73;;;3.60;99.90;;;;;;4411218;28;656846;-74
2023/12/17 00:59:45;;;;;;;20.90;5.90;;;3.60;99.90;;;;;;4417525;28;657583;-73
2023/12/17 01:02:32;;;;;;;14.20;4.97;;;3.60;99.90;;;;;;4413187;28;656577;-73
2023/12/17 01:05:21;;;;;;;19.55;8.57;;;3.70;99.90;;;;;;4430607;28;656696;-73
2023/12/17 01:08:08;;;;;;;18.00;7.13;;;3.70;99.90;;;;;;4397560;28;657317;-73
2023/12/17 01:10:55;;;;;;;17.70;6.00;;;3.70;99.90;;;;;;4424239;28;656845;-74
2023/12/17 01:13:42;;;;;;;23.03;10.17;;;3.70;99.90;;;;;;4408495;28;656241;-74
2023/12/17 01:16:30;;;;;;;8.63;3.90;;;3.70;99.90;;;;;;4421038;28;657530;-73
2023/12/17 01:19:17;;;;;;;14.60;5.80;;;3.70;99.90;;;;;;4396809;28;655807;-73
2023/12/17 01:22:06;;;;;;;15.03;6.10;;;3.70;99.90;;;;;;4421588;28;657459;-74
2023/12/17 01:24:54;;;;;;;22.87;6.90;;;3.70;99.90;;;;;;4402310;28;656385;-73
2023/12/17 01:27:41;;;;;;;14.77;5.15;;;3.70;99.90;;;;;;4419315;28;657138;-73
2023/12/17 01:30:29;;;;;;;17.93;9.17;;;3.70;99.90;;;;;;4398753;28;656409;-73
2023/12/17 01:33:16;;;;;;;23.50;9.93;;;3.70;99.90;;;;;;4414506;28;657404;-74
2023/12/17 01:36:03;;;;;;;20.63;7.63;;;3.70;99.90;;;;;;4401707;28;656730;-73
2023/12/17 01:38:52;;;;;;;11.33;4.63;;;3.70;99.90;;;;;;4417725;28;656383;-73
2023/12/17 01:41:39;;;;;;;15.60;4.53;;;3.80;99.90;;;;;;4397811;28;656890;-73
2023/12/17 01:44:26;;;;;;;18.53;7.73;;;3.80;99.90;;;;;;4420244;28;656308;-73
2023/12/17 01:47:13;;;;;;;25.60;9.73;;;3.70;99.90;;;;;;4399092;28;656772;-74
2023/12/17 01:50:00;;;;;;;25.80;9.80;;;3.70;99.90;;;;;;4425167;28;657557;-74
2023/12/17 01:52:48;;;;;;;12.10;4.13;;;3.80;99.90;;;;;;4409205;28;657216;-73
2023/12/17 01:55:36;;;;;;;19.23;9.50;;;3.80;99.90;;;;;;4419061;28;656874;-74
2023/12/17 01:58:23;;;;;;;16.20;8.03;;;3.70;99.90;;;;;;4406133;28;656556;-74
2023/12/17 02:01:10;;;;;;;12.95;7.38;;;3.70;99.90;;;;;;4416725;28;657637;-73
2023/12/17 02:03:58;;;;;;;19.10;7.40;;;3.80;99.90;;;;;;4394214;28;656479;-73
2023/12/17 02:06:45;;;;;;;10.27;5.17;;;3.80;99.90;;;;;;4427491;28;657297;-74
2023/12/17 02:09:32;;;;;;;21.77;9.07;;;3.70;99.90;;;;;;4400441;28;657138;-73
2023/12/17 02:12:28;;;;;;;23.30;9.43;;;3.70;99.90;;;;;;4418494;28;656382;-73
2023/12/17 02:15:15;;;;;;;21.60;9.73;;;3.80;99.90;;;;;;4369365;28;657376;-73
2023/12/17 02:18:02;;;;;;;19.77;8.03;;;3.80;99.90;;;;;;4397589;28;657114;-73
2023/12/17 02:20:51;;;;;;;18.77;5.30;;;3.80;99.90;;;;;;4401596;28;657306;-73
2023/12/17 02:23:39;;;;;;;22.13;9.73;;;3.80;99.90;;;;;;4391303;28;656951;-74
2023/12/17 02:26:26;;;;;;;19.42;8.43;;;3.80;99.90;;;;;;4400204;28;657393;-74
2023/12/17 02:29:14;;;;;;;18.13;6.80;;;3.80;99.90;;;;;;4374331;28;656336;-73
2023/12/17 02:32:01;;;;;;;25.27;8.53;;;3.80;99.90;;;;;;4412028;28;657230;-73
2023/12/17 02:34:48;;;;;;;12.33;4.73;;;3.80;99.90;;;;;;4398228;28;656447;-73
2023/12/17 02:37:35;;;;;;;17.20;8.03;;;3.80;99.90;;;;;;4386150;28;656742;-73
2023/12/17 02:40:24;;;;;;;14.77;6.60;;;3.80;99.90;;;;;;4385140;28;656991;-74
2023/12/17 02:43:11;;;;;;;14.67;6.93;;;3.80;99.90;;;;;;4402974;28;656864;-74
2023/12/17 02:45:58;;;;;;;22.03;9.47;;;3.70;99.90;;;;;;4383686;28;656490;-73
2023/12/17 02:48:46;;;;;;;12.77;5.03;;;3.70;99.90;;;;;;4403044;28;657869;-73
2023/12/17 02:51:33;;;;;;;13.57;5.53;;;3.70;99.90;;;;;;4389345;28;656462;-73
2023/12/17 02:54:21;;;;;;;11.43;6.03;;;3.70;99.90;;;;;;4414661;28;657045;-74
2023/12/17 02:57:10;;;;;;;24.15;9.95;;;3.70;99.90;;;;;;4391031;28;656923;-74
2023/12/17 02:59:57;;;;;;;6.93;3.83;;;3.70;99.90;;;;;;4396277;28;656472;-74
2023/12/17 03:02:44;;;;;;;21.87;8.67;;;3.60;99.90;;;;;;4378620;28;655908;-74
2023/12/17 03:05:31;;;;;;;16.13;4.57;;;3.60;99.90;;;;;;4408112;28;657196;-73
2023/12/17 03:08:18;;;;;;;23.40;9.40;;;3.60;99.90;;;;;;4375292;28;656882;-73
2023/12/17 03:11:05;;;;;;;26.70;9.77;;;3.60;99.90;;;;;;4397143;28;656461;-74
2023/12/17 03:13:54;;;;;;;23.17;8.70;;;3.50;99.90;;;;;;4387869;28;656752;-73
2023/12/17 03:16:42;;;;;;;21.33;9.53;;;3.50;99.90;;;;;;4411201;28;656329;-74
2023/12/17 03:19:29;;;;;;;21.50;8.40;;;3.50;99.90;;;;;;4398746;28;657938;-74
2023/12/17 03:22:16;;;;;;;14.83;6.43;;;3.40;99.90;;;;;;4418154;28;657016;-74
2023/12/17 03:25:04;;;;;;;15.00;6.05;;;3.40;99.90;;;;;;4398067;28;657180;-74
2023/12/17 03:27:51;;;;;;;24.00;9.83;;;3.40;99.90;;;;;;4418871;28;656479;-74
2023/12/17 03:30:39;;;;;;;21.27;9.53;;;3.30;99.90;;;;;;4396755;28;656637;-74
2023/12/17 03:33:27;;;;;;;10.10;4.47;;;3.30;99.90;;;;;;4416234;28;656810;-74
2023/12/17 03:36:14;;;;;;;23.60;8.87;;;3.30;99.90;;;;;;4382638;28;656774;-74
2023/12/17 03:39:02;;;;;;;18.53;8.67;;;3.20;99.90;;;;;;4423903;28;656574;-74
2023/12/17 03:41:50;;;;;;;18.53;7.20;;;3.10;99.90;;;;;;4391952;28;657764;-73
2023/12/17 03:44:37;;;;;;;22.27;9.27;;;3.20;99.90;;;;;;4416808;28;656632;-74
2023/12/17 03:47:27;;;;;;;24.17;8.87;;;3.10;99.90;;;;;;4416352;28;657482;-74
2023/12/17 03:50:15;;;;;;;15.03;4.90;;;3.10;99.90;;;;;;4395765;28;657383;-74
2023/12/17 03:53:02;;;;;;;24.20;8.53;;;3.00;99.90;;;;;;4418082;28;655856;-74
2023/12/17 03:55:49;;;;;;;21.87;8.73;;;3.10;99.90;;;;;;4394014;28;657242;-74
2023/12/17 03:58:36;;;;;;;19.63;8.17;;;3.00;99.90;;;;;;4418023;28;656384;-74
2023/12/17 04:01:23;;;;;;;21.13;7.53;;;3.00;99.90;;;;;;4388396;28;657293;-74
2023/12/17 04:04:12;;;;;;;19.77;8.57;;;3.00;99.90;;;;;;4423297;28;657551;-74
2023/12/17 04:06:59;;;;;;;14.10;3.93;;;2.90;99.90;;;;;;4404149;28;657251;-74
2023/12/17 04:09:47;;;;;;;21.15;9.00;;;3.00;99.90;;;;;;4411892;28;656423;-74
2023/12/17 04:12:34;;;;;;;11.97;4.67;;;3.00;99.90;;;;;;4396036;28;658066;-74
2023/12/17 04:15:22;;;;;;;8.70;3.80;;;3.00;99.90;;;;;;4416790;28;656517;-74
2023/12/17 04:18:09;;;;;;;17.17;7.57;;;3.00;99.90;;;;;;4402025;28;656159;-74
2023/12/17 04:20:57;;;;;;;19.20;7.87;;;3.00;99.90;;;;;;4414550;28;656650;-74
2023/12/17 04:23:45;;;;;;;17.23;6.73;;;2.90;99.90;;;;;;4392605;28;657592;-74
2023/12/17 04:26:32;;;;;;;15.23;4.93;;;2.90;99.90;;;;;;4406489;28;656686;-73
2023/12/17 04:29:20;;;;;;;17.57;7.23;;;2.90;99.90;;;;;;4430123;28;657494;-74
2023/12/17 04:32:07;;;;;;;17.30;6.73;;;2.90;99.90;;;;;;4414196;28;656272;-74
2023/12/17 04:34:55;;;;;;;19.73;6.50;;;2.90;99.90;;;;;;4392460;28;656362;-74
2023/12/17 04:37:44;;;;;;;20.00;8.63;;;2.90;99.90;;;;;;4392467;28;656726;-74
2023/12/17 04:40:31;;;;;;;17.37;7.93;;;2.90;99.90;;;;;;4424640;28;656207;-74
2023/12/17 04:43:18;;;;;;;17.00;6.87;;;2.90;99.90;;;;;;4396400;28;656894;-73
2023/12/17 04:46:06;;;;;;;19.97;8.20;;;3.00;99.90;;;;;;4425948;28;657081;-74
2023/12/17 04:48:53;;;;;;;17.60;7.33;;;2.90;99.90;;;;;;4397879;28;659378;-74
2023/12/17 04:51:40;;;;;;;22.43;8.87;;;2.90;99.90;;;;;;4419354;28;657335;-74
2023/12/17 04:54:29;;;;;;;18.33;8.18;;;2.90;99.90;;;;;;4405066;28;657009;-74
2023/12/17 04:57:16;;;;;;;20.90;8.47;;;2.90;99.90;;;;;;4421165;28;656536;-74
2023/12/17 05:00:05;;;;;;;21.23;7.47;;;2.90;99.90;;;;;;4395641;28;656789;-74
2023/12/17 05:02:52;;;;;;;17.97;8.00;;;2.90;99.90;;;;;;4410929;28;656940;-73
2023/12/17 05:05:40;;;;;;;12.90;5.33;;;2.90;99.90;;;;;;4417019;28;656994;-74
2023/12/17 05:08:27;;;;;;;20.70;8.87;;;3.00;99.90;;;;;;4423086;28;656799;-74
2023/12/17 05:11:15;;;;;;;29.03;8.67;;;2.90;99.90;;;;;;4404829;28;656581;-74
2023/12/17 05:14:02;;;;;;;14.30;6.35;;;2.90;99.90;;;;;;4395475;28;656722;-74
2023/12/17 05:16:50;;;;;;;21.00;7.50;;;2.90;99.90;;;;;;4421865;28;656421;-74
2023/12/17 05:19:37;;;;;;;15.57;6.00;;;2.80;99.90;;;;;;4431945;28;657002;-74
2023/12/17 05:22:24;;;;;;;19.93;8.67;;;2.90;99.90;;;;;;4402159;28;657499;-74
2023/12/17 05:25:11;;;;;;;17.70;8.43;;;2.90;99.90;;;;;;4433616;28;656268;-74
2023/12/17 05:28:00;;;;;;;18.45;7.72;;;2.90;99.90;;;;;;4394616;28;656827;-74
2023/12/17 05:30:47;;;;;;;19.83;8.37;;;2.90;99.90;;;;;;4426858;28;655875;-74
2023/12/17 05:33:34;;;;;;;24.13;8.07;;;2.90;99.90;;;;;;4404172;28;657097;-74
2023/12/17 05:36:21;;;;;;;20.95;6.28;;;2.90;99.90;;;;;;4406006;28;656523;-74
2023/12/17 05:39:09;;;;;;;16.57;7.43;;;3.00;99.90;;;;;;4401523;28;656912;-74
2023/12/17 05:41:56;;;;;;;22.40;8.90;;;2.90;99.90;;;;;;4414533;28;657536;-75
2023/12/17 05:44:44;;;;;;;15.03;6.40;;;2.90;99.90;;;;;;4405802;28;656056;-74
2023/12/17 05:47:32;;;;;;;21.47;9.10;;;2.90;99.90;;;;;;4425346;28;657380;-74
2023/12/17 05:50:19;;;;;;;12.57;5.17;;;2.90;99.90;;;;;;4396604;28;656380;-74
2023/12/17 05:53:06;;;;;;;16.77;6.70;;;2.90;99.90;;;;;;4419846;28;657526;-74
2023/12/17 05:55:53;;;;;;;19.50;7.67;;;2.90;99.90;;;;;;4409535;28;656690;-74
2023/12/17 05:58:41;;;;;;;10.83;4.80;;;2.80;99.90;;;;;;4415472;28;657609;-74
2023/12/17 06:01:30;;;;;;;8.90;4.03;;;2.90;99.90;;;;;;4403082;28;656430;-74
2023/12/17 06:04:17;;;;;;;19.37;7.70;;;2.90;99.90;;;;;;4422087;28;655715;-74
2023/12/17 06:07:05;;;;;;;14.67;7.97;;;2.80;99.90;;;;;;4417750;28;656992;-74
2023/12/17 06:09:52;;;;;;;15.43;6.63;;;2.80;99.90;;;;;;4419524;28;656595;-74
2023/12/17 06:12:39;;;;;;;10.48;4.22;;;2.90;99.90;;;;;;4420788;28;656668;-74
2023/12/17 06:15:27;;;;;;;21.53;9.20;;;2.90;99.90;;;;;;4420863;28;655595;-74
2023/12/17 06:18:16;;;;;;;20.57;8.20;;;2.90;99.90;;;;;;4390248;28;657301;-74
2023/12/17 06:21:04;;;;;;;15.93;6.45;;;2.90;99.90;;;;;;4407299;28;657385;-74
2023/12/17 06:23:51;;;;;;;17.10;8.23;;;2.90;99.90;;;;;;4428468;28;656499;-74
2023/12/17 06:26:38;;;;;;;18.08;6.35;;;3.00;99.90;;;;;;4394311;28;657460;-74
2023/12/17 06:29:26;;;;;;;13.17;6.57;;;3.00;99.90;;;;;;4430770;28;657052;-74
2023/12/17 06:32:13;;;;;;;18.43;8.40;;;3.00;99.90;;;;;;4388959;28;656586;-74
2023/12/17 06:35:01;;;;;;;18.80;9.03;;;3.00;99.90;;;;;;4421132;28;657783;-75
2023/12/17 06:37:49;;;;;;;25.97;8.63;;;3.00;99.90;;;;;;4389850;28;657041;-74
2023/12/17 06:40:36;;;;;;;20.33;7.27;;;3.00;99.90;;;;;;4425362;28;657584;-74
2023/12/17 06:43:23;;;;;;;20.40;8.33;;;3.00;99.90;;;;;;4392997;28;656647;-74
2023/12/17 06:46:15;;;;;;;12.87;5.83;;;3.00;99.90;;;;;;4424737;28;656867;-74
2023/12/17 06:49:03;;;;;;;21.23;8.23;;;3.00;99.90;;;;;;4393488;28;656080;-74
2023/12/17 06:51:51;;;;;;;28.07;9.23;;;3.00;99.90;;;;;;4413226;28;657304;-74
2023/12/17 06:54:38;;;;;;;19.53;7.73;;;3.00;99.90;;;;;;4363140;28;656478;-74
2023/12/17 06:57:25;;;;;;;18.33;8.10;;;3.00;99.90;;;;;;4251337;28;655992;-74
2023/12/17 07:00:14;;;;;;;23.30;8.17;;;3.10;99.90;;;;;;4237908;28;657039;-73
2023/12/17 07:03:01;;;;;;;15.33;6.10;;;3.10;99.90;;;;;;4415196;28;656672;-74
2023/12/17 07:05:49;;;;;;;16.77;6.50;;;3.20;99.90;;;;;;4392722;28;656701;-74
2023/12/17 07:08:37;;;;;;;16.00;7.90;;;3.10;99.90;;;;;;4412169;28;657260;-74
2023/12/17 07:11:24;;;;;;;20.37;7.57;;;3.30;99.90;;;;;;4398423;28;658329;-74
2023/12/17 07:14:12;;;;;;;15.43;7.37;;;3.20;99.90;;;;;;4423153;28;657341;-74
2023/12/17 07:16:59;;;;;;;17.37;7.40;;;3.30;99.90;;;;;;4385682;28;656460;-74
2023/12/17 07:19:46;;;;;;;15.43;5.87;;;3.30;99.90;;;;;;4395396;28;656426;-74
2023/12/17 07:22:33;;;;;;;17.37;6.23;;;3.30;99.90;;;;;;4374316;28;656113;-74
2023/12/17 07:25:24;;;;;;;22.90;5.83;;;3.40;99.90;;;;;;4395933;28;657048;-74
2023/12/17 07:28:11;;;;;;;18.97;8.37;;;3.30;99.90;;;;;;4373807;28;656363;-74
2023/12/17 07:30:58;;;;;;;12.40;6.67;;;3.30;99.90;;;;;;4394786;28;657042;-74
2023/12/17 07:33:46;;;;;;;18.47;8.63;;;3.40;99.90;;;;;;4395372;28;658162;-74
2023/12/17 07:36:33;;;;;;;13.73;6.60;;;3.40;99.90;;;;;;4382257;28;657461;-74
2023/12/17 07:39:20;;;;;;;18.37;7.97;;;3.40;99.90;;;;;;4405963;28;656668;-74
2023/12/17 07:42:09;;;;;;;19.37;8.53;;;3.40;99.90;;;;;;4376067;28;656986;-74
2023/12/17 07:44:56;;;;;;;21.53;8.23;;;3.40;99.90;;;;;;4394514;28;656186;-74
2023/12/17 07:47:44;;;;;;;17.47;8.60;;;3.40;99.90;;;;;;4377053;28;657091;-74
2023/12/17 07:50:31;;;;;;;22.77;9.80;;;3.40;99.90;;;;;;4396751;28;656781;-74
2023/12/17 07:53:18;;;;;;;15.83;7.27;;;3.50;99.90;;;;;;4377048;28;656695;-74
2023/12/17 07:56:09;;;;;;;11.27;6.10;;;3.50;99.90;;;;;;4406148;28;657683;-74
2023/12/17 07:58:58;;;;;;;13.43;6.20;;;3.50;99.90;;;;;;4377788;28;656300;-74
2023/12/17 08:01:45;;;;;;;20.67;8.67;;;3.50;99.90;;;;;;4377015;28;656858;-74
2023/12/17 08:04:35;;;;;;;10.60;5.97;;;3.50;99.90;;;;;;4393965;28;656912;-74
2023/12/17 08:07:22;;;;;;;12.90;5.40;;;3.70;99.90;;;;;;4382926;28;657127;-74
2023/12/17 08:10:10;;;;;;;18.83;8.70;;;3.60;99.90;;;;;;4407897;28;657371;-74
2023/12/17 08:12:57;;;;;;;20.13;9.47;;;3.60;99.90;;;;;;4393864;28;656575;-74
2023/12/17 08:15:46;;;;;;;11.63;4.37;;;3.60;99.90;;;;;;4403256;28;656259;-74
2023/12/17 08:18:33;;;;;;;7.53;3.87;;;3.70;99.90;;;;;;4394611;28;656544;-74
2023/12/17 08:21:20;;;;;;;8.10;4.63;;;3.90;99.90;;;;;;4425906;28;656396;-74
2023/12/17 08:24:07;;;;;;;17.48;8.48;;;3.90;99.90;;;;;;4398849;28;655814;-74
2023/12/17 08:26:57;;;;;;;16.97;7.57;;;4.00;99.90;;;;;;4420453;28;657721;-74
2023/12/17 08:29:47;;;;;;;19.77;8.73;;;4.10;99.90;;;;;;4397540;28;657195;-74
2023/12/17 08:32:36;;;;;;;20.47;9.10;;;4.10;99.90;;;;;;4408699;28;658015;-74
2023/12/17 08:35:23;;;;;;;19.17;9.40;;;4.10;99.90;;;;;;4401983;28;656960;-74
2023/12/17 08:38:10;;;;;;;14.27;7.47;;;4.00;99.90;;;;;;4430748;28;657248;-74
2023/12/17 08:40:57;;;;;;;18.67;9.27;;;4.10;99.90;;;;;;4401192;28;656177;-74
2023/12/17 08:43:45;;;;;;;16.27;8.37;;;4.10;99.90;;;;;;4424209;28;656793;-74
2023/12/17 08:46:32;;;;;;;15.40;7.90;;;4.20;99.90;;;;;;4402930;28;656534;-74
2023/12/17 08:49:21;;;;;;;13.77;6.27;;;4.20;99.90;;;;;;4418010;28;656797;-74
2023/12/17 08:52:08;;;;;;;21.20;9.13;;;4.20;99.90;;;;;;4400624;28;656906;-74
2023/12/17 08:54:55;;;;;;;21.23;9.37;;;4.30;99.90;;;;;;4419087;28;657271;-74
2023/12/17 08:57:43;;;;;;;17.50;8.87;;;4.30;99.90;;;;;;4396176;28;656327;-74
2023/12/17 09:00:30;;;;;;;10.17;5.77;;;4.30;99.90;;;;;;4416755;28;657159;-74
2023/12/17 09:03:18;;;;;;;17.77;8.47;;;4.40;99.90;;;;;;4413541;28;656196;-74
2023/12/17 09:06:08;;;;;;;16.77;9.13;;;4.50;99.90;;;;;;4425220;28;657076;-74
2023/12/17 09:08:55;;;;;;;28.60;10.10;;;4.60;99.90;;;;;;4396365;28;656601;-74
2023/12/17 09:11:43;;;;;;;18.20;8.17;;;4.50;99.90;;;;;;4404232;28;657511;-74
2023/12/17 09:14:31;;;;;;;16.33;7.17;;;4.70;99.90;;;;;;4422721;28;657351;-74
2023/12/17 09:17:18;;;;;;;19.23;8.60;;;4.80;99.90;;;;;;4399933;28;656821;-74
2023/12/17 09:20:06;;;;;;;10.67;5.43;;;4.90;99.90;;;;;;4415758;28;657040;-74
2023/12/17 09:22:54;;;;;;;22.00;9.17;;;5.00;99.90;;;;;;4405301;28;656628;-74
2023/12/17 09:25:42;;;;;;;8.43;5.27;;;5.40;99.90;;;;;;4428766;28;656628;-74
2023/12/17 09:28:30;;;;;;;19.47;8.33;;;5.70;99.90;;;;;;4395822;28;656070;-74
2023/12/17 09:31:17;;;;;;;20.37;8.77;;;5.50;99.90;;;;;;4397654;28;656812;-74
2023/12/17 09:34:04;;;;;;;15.65;7.63;;;5.70;99.90;;;;;;4429026;28;657692;-75
2023/12/17 09:36:52;;;;;;;14.90;6.50;;;5.60;99.90;;;;;;4403525;28;657228;-74
2023/12/17 09:39:40;;;;;;;14.37;8.70;;;6.10;99.90;;;;;;4409903;28;656674;-74
2023/12/17 09:42:27;;;;;;;20.23;8.73;;;6.20;99.90;;;;;;4401034;28;657354;-74
2023/12/17 09:45:15;;;;;;;14.13;7.30;;;6.50;99.90;;;;;;4416919;28;657000;-74
2023/12/17 09:48:03;;;;;;;11.50;6.27;;;6.90;99.90;;;;;;4427030;28;656167;-73
2023/12/17 09:50:50;;;;;;;19.30;8.50;;;6.50;99.90;;;;;;4420097;28;658079;-74
2023/12/17 09:53:37;;;;;;;6.33;3.40;;;6.10;99.90;;;;;;4414002;28;656821;-74
2023/12/17 09:56:26;;;;;;;15.23;7.30;;;6.40;99.90;;;;;;4432754;28;655381;-74
2023/12/17 09:59:13;;;;;;;14.10;8.70;;;6.30;99.90;;;;;;4393303;28;656275;-74
2023/12/17 10:02:00;;;;;;;13.87;5.70;;;6.20;99.90;;;;;;4414474;28;657737;-74
2023/12/17 10:04:47;;;;;;;15.25;7.85;;;6.70;99.90;;;;;;4410195;28;656825;-74
2023/12/17 10:07:35;;;;;;;17.80;9.70;;;7.40;99.90;;;;;;4418233;28;656423;-74
2023/12/17 10:10:22;;;;;;;19.23;9.60;;;7.70;99.90;;;;;;4418467;28;655927;-74
2023/12/17 10:13:12;;;;;;;17.77;8.47;;;7.10;99.90;;;;;;4407629;28;656384;-74
2023/12/17 10:15:59;;;;;;;20.80;8.17;;;6.90;99.90;;;;;;4391259;28;657389;-74
2023/12/17 10:18:48;;;;;;;16.20;8.37;;;6.40;99.90;;;;;;4425445;28;656118;-74
2023/12/17 10:21:35;;;;;;;22.00;9.60;;;6.10;99.90;;;;;;4390405;28;657635;-74
2023/12/17 10:24:34;;;;;;;22.03;9.83;;;6.00;99.90;;;;;;4403408;28;656997;-72
2023/12/17 10:27:22;;;;;;;26.10;11.03;;;6.00;99.90;;;;;;4396376;28;656491;-74
2023/12/17 10:30:12;;;;;;;20.70;11.03;;;5.90;99.90;;;;;;4402534;28;659112;-74
2023/12/17 10:32:59;;;;;;;20.37;9.70;;;5.80;99.90;;;;;;4409291;28;658201;-74
2023/12/17 10:35:47;;;;;;;21.33;9.17;;;6.10;99.90;;;;;;4408918;28;657063;-74
2023/12/17 10:38:34;;;;;;;21.73;9.70;;;6.60;99.90;;;;;;4394492;28;656982;-74
2023/12/17 10:41:21;;;;;;;22.70;11.27;;;7.10;99.90;;;;;;4415867;28;656264;-74
2023/12/17 10:44:08;;;;;;;13.63;6.53;;;7.00;99.90;;;;;;4405051;28;657195;-74
2023/12/17 10:46:57;;;;;;;17.10;7.50;;;6.90;99.90;;;;;;4419688;28;657137;-75
2023/12/17 10:49:44;;;;;;;20.27;9.13;;;7.00;99.90;;;;;;4403371;28;657286;-74
2023/12/17 10:52:31;;;;;;;20.20;10.53;;;6.60;99.90;;;;;;4415585;28;656492;-74
2023/12/17 10:55:19;;;;;;;18.60;9.53;;;7.20;99.90;;;;;;4399870;28;657649;-74
2023/12/17 10:58:07;;;;;;;29.30;12.00;;;6.80;99.90;;;;;;4413146;28;657258;-72
2023/12/17 11:00:54;;;;;;;19.37;10.07;;;6.80;99.90;;;;;;4389461;28;658496;-72
2023/12/17 11:03:43;;;;;;;21.87;10.90;;;6.90;99.90;;;;;;4424821;28;657621;-72
2023/12/17 11:06:30;;;;;;;27.60;10.03;;;6.80;99.90;;;;;;4388965;28;658615;-73
2023/12/17 11:09:17;;;;;;;22.77;11.00;;;6.80;99.90;;;;;;4407093;28;657472;-73
2023/12/17 11:12:06;;;;;;;23.17;9.60;;;6.50;99.90;;;;;;4411365;28;657884;-73
2023/12/17 11:14:54;;;;;;;29.67;12.53;;;6.20;99.90;;;;;;4394613;28;656700;-73
2023/12/17 11:17:42;;;;;;;21.00;10.10;;;6.00;99.90;;;;;;4418747;28;658326;-73
2023/12/17 11:20:34;;;;;;;17.53;6.90;;;5.80;99.90;;;;;;4400105;28;657835;-73
2023/12/17 11:23:22;;;;;;;24.90;12.45;;;5.70;99.90;;;;;;4404938;28;657033;-73
2023/12/17 11:26:09;;;;;;;23.10;9.50;;;5.70;99.90;;;;;;4392131;28;658081;-73
2023/12/17 11:28:56;;;;;;;26.37;11.67;;;5.80;99.90;;;;;;4413177;28;656621;-73
2023/12/17 11:31:43;;;;;;;26.30;11.87;;;5.80;99.90;;;;;;4389709;28;657496;-73
2023/12/17 11:34:31;;;;;;;21.80;11.73;;;5.70;99.90;;;;;;4412893;28;658831;-73
2023/12/17 11:37:20;;;;;;;25.03;12.07;;;5.70;99.90;;;;;;4399075;28;657165;-73
2023/12/17 11:40:09;;;;;;;24.30;11.77;;;5.80;99.90;;;;;;4402698;28;658229;-73
2023/12/17 11:42:59;;;;;;;22.15;9.30;;;5.80;99.90;;;;;;4424216;28;658285;-73
2023/12/17 11:45:47;;;;;;;33.30;13.13;;;5.80;99.90;;;;;;4389969;28;657914;-73
2023/12/17 11:48:35;;;;;;;27.90;10.97;;;5.80;99.90;;;;;;4393620;28;658095;-73
2023/12/17 11:51:25;;;;;;;28.53;12.30;;;5.80;99.90;;;;;;4407219;28;658162;-73
2023/12/17 11:54:19;;;;;;;24.30;12.20;;;5.80;99.90;;;;;;4407918;28;657290;-73
2023/12/17 11:57:19;;;;;;;20.93;9.93;;;5.80;99.90;;;;;;4404977;28;657850;-73
2023/12/17 12:00:12;;;;;;;21.93;11.50;;;5.80;99.90;;;;;;4401298;28;656434;-73
2023/12/17 12:02:59;;;;;;;24.50;12.17;;;5.80;99.90;;;;;;4403006;28;657908;-74
2023/12/17 12:05:46;;;;;;;25.03;12.47;;;5.70;99.90;;;;;;4417256;28;657304;-73
2023/12/17 12:08:34;;;;;;;29.13;13.53;;;5.80;99.90;;;;;;4390277;28;658306;-73
2023/12/17 12:11:33;;;;;;;28.23;13.40;;;5.90;99.90;;;;;;4416473;28;657805;-73
2023/12/17 12:14:20;;;;;;;28.23;12.17;;;5.80;99.90;;;;;;4398953;28;657361;-73
2023/12/17 12:17:07;;;;;;;28.27;11.02;;;5.80;99.90;;;;;;4399345;28;657316;-73
2023/12/17 12:19:55;;;;;;;24.60;13.33;;;5.70;99.90;;;;;;4425162;28;658167;-74
2023/12/17 12:22:44;;;;;;;18.07;9.83;;;5.70;99.90;;;;;;4429691;28;657055;-73
2023/12/17 12:25:31;;;;;;;18.47;9.37;;;5.70;99.90;;;;;;4397685;28;657157;-73
2023/12/17 12:28:20;;;;;;;26.60;12.47;;;5.70;99.90;;;;;;4405614;28;657469;-73
2023/12/17 12:31:11;;;;;;;20.75;8.75;;;5.70;99.90;;;;;;4398939;28;657222;-73
2023/12/17 12:33:59;;;;;;;28.37;13.30;;;5.60;99.90;;;;;;4396303;28;656756;-73
2023/12/17 12:36:47;;;;;;;23.47;11.37;;;5.60;99.90;;;;;;4427725;28;657756;-73
2023/12/17 12:39:45;;;;;;;26.10;11.93;;;5.50;99.90;;;;;;4406831;28;658205;-73
2023/12/17 12:42:33;;;;;;;21.97;12.50;;;5.50;99.90;;;;;;4372268;28;657354;-73
2023/12/17 12:45:21;;;;;;;28.33;13.53;;;5.60;99.90;;;;;;4419571;28;658614;-73
2023/12/17 12:48:16;;;;;;;11.67;5.63;;;5.50;99.90;;;;;;4403446;28;658032;-73
2023/12/17 12:51:04;;;;;;;30.20;13.30;;;5.50;99.90;;;;;;4364098;28;657331;-73
2023/12/17 12:53:51;;;;;;;19.73;10.73;;;5.50;99.90;;;;;;4250241;28;657653;-73
2023/12/17 12:56:39;;;;;;;17.20;8.03;;;5.50;99.90;;;;;;4237810;28;657920;-73
2023/12/17 12:59:27;;;;;;;23.57;12.90;;;5.50;99.90;;;;;;4409987;28;656889;-73
2023/12/17 13:02:15;;;;;;;26.47;12.40;;;5.50;99.90;;;;;;4402544;28;657950;-73
2023/12/17 13:05:03;;;;;;;30.37;13.47;;;5.50;99.90;;;;;;4407684;28;658112;-73
2023/12/17 13:07:50;;;;;;;24.43;13.20;;;5.60;99.90;;;;;;4414973;28;658316;-74
2023/12/17 13:10:37;;;;;;;29.00;13.73;;;5.80;99.90;;;;;;4422350;28;657511;-74
2023/12/17 13:13:25;;;;;;;27.92;12.13;;;6.10;99.90;;;;;;4431635;28;657266;-73
2023/12/17 13:16:12;;;;;;;13.50;6.87;;;6.50;99.90;;;;;;4420601;28;657238;-73
2023/12/17 13:19:00;;;;;;;25.67;13.07;;;6.50;99.90;;;;;;4396781;28;656692;-73
2023/12/17 13:21:47;;;;;;;25.00;12.50;;;6.60;99.90;;;;;;4395950;28;657732;-73
2023/12/17 13:24:35;;;;;;;28.60;13.00;;;6.60;99.90;;;;;;4421157;28;658285;-74
2023/12/17 13:27:22;;;;;;;18.87;10.53;;;6.50;99.90;;;;;;4415610;28;657837;-73
2023/12/17 13:30:11;;;;;;;19.43;7.90;;;6.20;99.90;;;;;;4425121;28;658473;-74
2023/12/17 13:33:00;;;;;;;26.50;12.53;;;6.20;99.90;;;;;;4393813;28;656157;-73
2023/12/17 13:35:49;;;;;;;25.37;12.80;;;6.20;99.90;;;;;;4413830;28;657127;-73
2023/12/17 13:38:36;;;;;;;25.13;13.83;;;6.00;99.90;;;;;;4423193;28;658421;-73
2023/12/17 13:41:23;;;;;;;19.40;8.83;;;5.90;99.90;;;;;;4404765;28;657969;-73
2023/12/17 13:44:10;;;;;;;18.73;8.40;;;5.90;99.90;;;;;;4417312;28;657338;-73
2023/12/17 13:46:57;;;;;;;23.27;11.57;;;5.90;99.90;;;;;;4399803;28;657228;-73
2023/12/17 13:49:45;;;;;;;14.30;6.33;;;6.00;99.90;;;;;;4416707;28;657549;-73
2023/12/17 13:52:35;;;;;;;27.00;13.93;;;5.90;99.90;;;;;;4418533;28;656732;-73
2023/12/17 13:55:22;;;;;;;26.57;12.40;;;6.00;99.90;;;;;;4401095;28;657258;-73
2023/12/17 13:58:09;;;;;;;25.60;12.87;;;5.80;99.90;;;;;;4391679;28;658765;-73
2023/12/17 14:00:56;;;;;;;30.93;16.17;;;5.70;99.90;;;;;;4418023;28;657507;-73
2023/12/17 14:03:43;;;;;;;27.10;14.70;;;5.60;99.90;;;;;;4394888;28;657559;-73
2023/12/17 14:06:31;;;;;;;26.87;14.47;;;5.50;99.90;;;;;;4414125;28;657644;-73
2023/12/17 14:09:19;;;;;;;32.43;15.50;;;5.50;99.90;;;;;;4400279;28;657889;-74
2023/12/17 14:12:07;;;;;;;29.43;15.03;;;5.40;99.90;;;;;;4420218;28;658165;-74
2023/12/17 14:14:55;;;;;;;29.30;14.83;;;5.20;99.90;;;;;;4398943;28;658694;-74
2023/12/17 14:17:42;;;;;;;33.40;15.37;;;5.20;99.90;;;;;;4402981;28;657820;-73
2023/12/17 14:20:29;;;;;;;33.80;15.93;;;5.10;99.90;;;;;;4421019;28;658120;-73